Time;durP1;ratioP1;P1;durP2;ratioP2;P2;SDS_P1;SDS_P2;PMS_P1;PMS_P2;Temp;Humidity;BMP_temperature;BMP_pressure;BME280_temperature;BME280_humidity;BME280_pressure;Samples;Min_cycle;Max_cycle;Signal;HPM_P1;HPM_P2
2023/07/22 00:01:09;;;;;;;6.97;3.63;;;;;;;;;;776021;180;918945;-56
2023/07/22 00:03:35;;;;;;;11.97;4.30;;;;;;;;;;768486;180;921831;-56
2023/07/22 00:06:02;;;;;;;8.80;4.43;;;;;;;;;;779855;178;814806;-58
2023/07/22 00:08:28;;;;;;;7.67;3.97;;;;;;;;;;771288;180;920501;-57
2023/07/22 00:10:54;;;;;;;12.47;3.97;;;;;;;;;;772147;180;920180;-57
2023/07/22 00:13:20;;;;;;;7.67;4.40;;;;;;;;;;777038;180;919232;-58
2023/07/22 00:15:46;;;;;;;6.83;4.93;;;;;;;;;;770587;179;922153;-58
2023/07/22 00:18:11;;;;;;;9.43;4.30;;;;;;;;;;775133;180;915731;-56
2023/07/22 00:20:38;;;;;;;19.23;4.63;;;;;;;;;;774786;181;917185;-56
2023/07/22 00:23:03;;;;;;;11.50;4.53;;;;;;;;;;776003;179;916899;-57
2023/07/22 00:25:29;;;;;;;14.00;4.87;;;;;;;;;;769864;181;919760;-56
2023/07/22 00:27:57;;;;;;;10.70;4.27;;;;;;;;;;774086;181;920722;-58
2023/07/22 00:30:21;;;;;;;9.57;4.23;;;;;;;;;;774143;178;817088;-58
2023/07/22 00:32:47;;;;;;;9.43;4.50;;;;;;;;;;774388;181;919367;-56
2023/07/22 00:35:13;;;;;;;14.65;5.30;;;;;;;;;;772233;180;922125;-58
2023/07/22 00:37:38;;;;;;;17.60;5.10;;;;;;;;;;780246;180;925898;-58
2023/07/22 00:40:06;;;;;;;10.30;4.73;;;;;;;;;;775247;179;900898;-57
2023/07/22 00:42:30;;;;;;;8.53;4.60;;;;;;;;;;769344;181;919533;-58
2023/07/22 00:44:56;;;;;;;7.00;4.73;;;;;;;;;;766152;181;920666;-56
2023/07/22 00:47:22;;;;;;;7.73;4.17;;;;;;;;;;770041;181;817343;-57
2023/07/22 00:49:48;;;;;;;11.20;4.23;;;;;;;;;;771583;179;819582;-57
2023/07/22 00:52:14;;;;;;;7.63;4.33;;;;;;;;;;769399;181;918412;-58
2023/07/22 00:54:40;;;;;;;9.77;4.30;;;;;;;;;;780975;179;918495;-56
2023/07/22 00:57:06;;;;;;;7.37;4.43;;;;;;;;;;770453;180;918192;-56
2023/07/22 00:59:31;;;;;;;10.90;5.13;;;;;;;;;;767848;180;918767;-56
2023/07/22 01:01:57;;;;;;;9.60;5.07;;;;;;;;;;778269;178;938476;-56
2023/07/22 01:04:23;;;;;;;11.00;5.00;;;;;;;;;;776711;179;929117;-56
2023/07/22 01:06:49;;;;;;;13.07;5.70;;;;;;;;;;769208;180;923035;-56
2023/07/22 01:09:15;;;;;;;12.37;5.20;;;;;;;;;;777787;180;920278;-57
2023/07/22 01:11:41;;;;;;;7.63;4.83;;;;;;;;;;773411;181;919593;-56
2023/07/22 01:14:07;;;;;;;15.23;5.07;;;;;;;;;;767786;181;920236;-57
2023/07/22 01:16:33;;;;;;;13.27;5.00;;;;;;;;;;773728;178;953006;-58
2023/07/22 01:18:58;;;;;;;19.90;5.30;;;;;;;;;;780168;180;921875;-58
2023/07/22 01:21:24;;;;;;;14.13;6.30;;;;;;;;;;773441;180;920273;-57
2023/07/22 01:23:50;;;;;;;12.68;5.53;;;;;;;;;;775033;179;921369;-58
2023/07/22 01:26:16;;;;;;;11.97;5.87;;;;;;;;;;781165;180;918380;-58
2023/07/22 01:28:42;;;;;;;6.97;4.70;;;;;;;;;;775974;179;920092;-59
2023/07/22 01:31:08;;;;;;;15.50;6.50;;;;;;;;;;775511;180;920487;-58
2023/07/22 01:33:33;;;;;;;18.47;7.07;;;;;;;;;;774265;180;819421;-58
2023/07/22 01:35:59;;;;;;;11.00;7.07;;;;;;;;;;771356;180;918146;-58
2023/07/22 01:38:25;;;;;;;26.30;6.73;;;;;;;;;;771123;180;919471;-58
2023/07/22 01:40:51;;;;;;;17.70;6.17;;;;;;;;;;775310;181;817589;-58
2023/07/22 01:43:17;;;;;;;16.70;6.97;;;;;;;;;;780679;181;817095;-58
2023/07/22 01:45:43;;;;;;;13.73;7.30;;;;;;;;;;771593;181;930138;-59
2023/07/22 01:48:08;;;;;;;19.40;6.77;;;;;;;;;;773640;180;920337;-58
2023/07/22 01:50:34;;;;;;;30.03;8.20;;;;;;;;;;776275;179;919888;-56
2023/07/22 01:53:00;;;;;;;18.57;7.00;;;;;;;;;;769921;180;920549;-58
2023/07/22 01:55:26;;;;;;;26.90;7.75;;;;;;;;;;775321;179;919496;-56
2023/07/22 01:57:52;;;;;;;17.73;7.33;;;;;;;;;;778520;179;919811;-56
2023/07/22 02:00:18;;;;;;;12.90;7.63;;;;;;;;;;767973;179;923096;-56
2023/07/22 02:02:43;;;;;;;14.70;6.67;;;;;;;;;;773568;179;921853;-56
2023/07/22 02:05:10;;;;;;;21.87;6.90;;;;;;;;;;774475;179;932921;-57
2023/07/22 02:07:35;;;;;;;16.60;7.65;;;;;;;;;;771900;180;932112;-58
2023/07/22 02:10:01;;;;;;;15.73;8.40;;;;;;;;;;774490;178;914858;-59
2023/07/22 02:12:27;;;;;;;11.33;7.50;;;;;;;;;;776827;179;919430;-59
2023/07/22 02:14:53;;;;;;;20.07;7.57;;;;;;;;;;777353;180;921758;-56
2023/07/22 02:17:20;;;;;;;13.23;7.83;;;;;;;;;;766439;181;920938;-56
2023/07/22 02:19:44;;;;;;;12.13;7.33;;;;;;;;;;770275;179;916779;-56
2023/07/22 02:22:10;;;;;;;24.67;8.10;;;;;;;;;;780028;179;919428;-59
2023/07/22 02:24:36;;;;;;;14.00;7.60;;;;;;;;;;775125;179;926531;-58
2023/07/22 02:27:02;;;;;;;20.73;8.83;;;;;;;;;;770846;179;961772;-58
2023/07/22 02:29:28;;;;;;;16.10;8.30;;;;;;;;;;777695;178;934431;-58
2023/07/22 02:31:54;;;;;;;11.10;7.50;;;;;;;;;;762921;181;918711;-58
2023/07/22 02:34:20;;;;;;;22.97;9.10;;;;;;;;;;771824;180;922822;-56
2023/07/22 02:36:45;;;;;;;13.50;9.27;;;;;;;;;;768877;178;921268;-58
2023/07/22 02:39:11;;;;;;;15.77;9.33;;;;;;;;;;780362;180;921837;-58
2023/07/22 02:41:37;;;;;;;23.10;10.40;;;;;;;;;;775234;180;919039;-57
2023/07/22 02:44:03;;;;;;;17.63;9.13;;;;;;;;;;773292;180;915450;-58
2023/07/22 02:46:29;;;;;;;22.87;10.17;;;;;;;;;;774033;179;816615;-56
2023/07/22 02:48:55;;;;;;;21.57;9.83;;;;;;;;;;772895;180;920183;-57
2023/07/22 02:51:20;;;;;;;22.40;10.73;;;;;;;;;;773590;180;919451;-58
2023/07/22 02:53:46;;;;;;;21.93;10.00;;;;;;;;;;778721;179;915747;-56
2023/07/22 02:56:12;;;;;;;15.90;10.10;;;;;;;;;;772307;179;901228;-58
2023/07/22 02:58:38;;;;;;;19.57;10.13;;;;;;;;;;766928;180;919175;-58
2023/07/22 03:01:04;;;;;;;37.77;9.57;;;;;;;;;;773121;180;918727;-58
2023/07/22 03:03:32;;;;;;;21.33;10.63;;;;;;;;;;775838;180;919315;-56
2023/07/22 03:05:57;;;;;;;17.50;9.67;;;;;;;;;;776209;180;921055;-56
2023/07/22 03:08:21;;;;;;;15.60;10.37;;;;;;;;;;772002;181;918632;-57
2023/07/22 03:10:48;;;;;;;21.60;10.33;;;;;;;;;;777090;181;922179;-58
2023/07/22 03:13:13;;;;;;;17.57;11.00;;;;;;;;;;773494;180;918965;-57
2023/07/22 03:15:39;;;;;;;21.57;10.10;;;;;;;;;;766663;180;919796;-57
2023/07/22 03:18:06;;;;;;;15.70;10.20;;;;;;;;;;780638;178;919372;-57
2023/07/22 03:20:31;;;;;;;26.47;10.67;;;;;;;;;;772235;179;917643;-57
2023/07/22 03:22:56;;;;;;;23.53;9.47;;;;;;;;;;774309;179;823832;-58
2023/07/22 03:25:22;;;;;;;35.67;9.90;;;;;;;;;;777000;179;818734;-57
2023/07/22 03:27:48;;;;;;;25.70;11.70;;;;;;;;;;770073;180;921635;-56
2023/07/22 03:30:15;;;;;;;36.47;11.40;;;;;;;;;;778050;178;916962;-56
2023/07/22 03:32:43;;;;;;;19.63;10.47;;;;;;;;;;775326;180;918836;-58
2023/07/22 03:35:10;;;;;;;19.90;10.97;;;;;;;;;;779790;180;867534;-58
2023/07/22 03:37:36;;;;;;;21.10;11.80;;;;;;;;;;776279;179;917191;-58
2023/07/22 03:40:00;;;;;;;26.27;10.87;;;;;;;;;;773471;179;915268;-58
2023/07/22 03:42:26;;;;;;;24.30;10.73;;;;;;;;;;780039;179;869430;-57
2023/07/22 03:44:52;;;;;;;25.40;10.25;;;;;;;;;;776845;179;915331;-56
2023/07/22 03:47:18;;;;;;;35.83;11.03;;;;;;;;;;774329;179;916982;-56
2023/07/22 03:49:44;;;;;;;22.45;9.60;;;;;;;;;;773486;180;916541;-58
2023/07/22 03:52:14;;;;;;;24.27;10.13;;;;;;;;;;764842;181;919436;-58
2023/07/22 03:54:36;;;;;;;14.93;9.77;;;;;;;;;;763886;181;919284;-56
2023/07/22 03:57:02;;;;;;;16.70;10.60;;;;;;;;;;769793;180;884695;-58
2023/07/22 03:59:28;;;;;;;29.00;10.80;;;;;;;;;;777881;179;922148;-57
2023/07/22 04:01:54;;;;;;;13.00;8.60;;;;;;;;;;771472;181;892874;-56
2023/07/22 04:04:19;;;;;;;11.90;9.30;;;;;;;;;;776548;179;919478;-56
2023/07/22 04:06:45;;;;;;;14.83;9.30;;;;;;;;;;775823;179;919222;-58
2023/07/22 04:09:11;;;;;;;13.47;9.20;;;;;;;;;;769812;180;928698;-58
2023/07/22 04:11:37;;;;;;;17.50;10.73;;;;;;;;;;769481;181;916151;-58
2023/07/22 04:14:03;;;;;;;22.70;10.77;;;;;;;;;;768113;180;813812;-58
2023/07/22 04:16:29;;;;;;;20.60;10.33;;;;;;;;;;773728;181;912025;-57
2023/07/22 04:18:54;;;;;;;17.97;10.27;;;;;;;;;;772992;178;919275;-58
2023/07/22 04:21:20;;;;;;;24.03;10.70;;;;;;;;;;774398;179;917688;-58
2023/07/22 04:23:46;;;;;;;28.23;10.30;;;;;;;;;;776019;180;916892;-57
2023/07/22 04:26:12;;;;;;;23.57;10.10;;;;;;;;;;774154;180;910712;-57
2023/07/22 04:28:38;;;;;;;13.13;9.03;;;;;;;;;;764996;179;945170;-58
2023/07/22 04:31:04;;;;;;;18.20;10.03;;;;;;;;;;779681;178;922371;-58
2023/07/22 04:33:30;;;;;;;15.43;9.90;;;;;;;;;;774394;179;840154;-56
2023/07/22 04:35:56;;;;;;;10.47;9.37;;;;;;;;;;763208;180;918522;-56
2023/07/22 04:38:22;;;;;;;13.37;9.63;;;;;;;;;;780128;179;918864;-56
2023/07/22 04:40:48;;;;;;;13.03;11.00;;;;;;;;;;775635;180;918812;-56
2023/07/22 04:43:14;;;;;;;13.07;8.97;;;;;;;;;;774448;180;922029;-56
2023/07/22 04:45:40;;;;;;;15.33;10.23;;;;;;;;;;772322;180;926224;-57
2023/07/22 04:48:06;;;;;;;17.17;11.12;;;;;;;;;;762950;183;917967;-59
2023/07/22 04:50:31;;;;;;;13.63;9.97;;;;;;;;;;764620;179;919326;-58
2023/07/22 04:52:57;;;;;;;14.47;11.07;;;;;;;;;;769840;179;1840129;-58
2023/07/22 04:55:23;;;;;;;12.93;11.10;;;;;;;;;;781818;179;919433;-57
2023/07/22 04:57:51;;;;;;;21.60;12.83;;;;;;;;;;769164;180;919131;-56
2023/07/22 05:00:16;;;;;;;18.60;11.67;;;;;;;;;;766447;178;919127;-58
2023/07/22 05:02:41;;;;;;;14.57;11.20;;;;;;;;;;778068;180;892013;-57
2023/07/22 05:05:07;;;;;;;15.77;12.90;;;;;;;;;;771243;180;868037;-56
2023/07/22 05:07:33;;;;;;;15.10;11.90;;;;;;;;;;775778;180;940290;-56
2023/07/22 05:09:59;;;;;;;19.12;11.27;;;;;;;;;;769423;180;919628;-58
2023/07/22 05:12:25;;;;;;;15.60;12.70;;;;;;;;;;777814;181;903982;-58
2023/07/22 05:14:51;;;;;;;19.77;12.43;;;;;;;;;;775129;180;919285;-59
2023/07/22 05:17:16;;;;;;;16.47;12.17;;;;;;;;;;770718;181;920115;-58
2023/07/22 05:19:42;;;;;;;17.87;12.10;;;;;;;;;;778658;180;920371;-57
2023/07/22 05:22:08;;;;;;;16.50;11.50;;;;;;;;;;768777;180;918456;-56
2023/07/22 05:24:34;;;;;;;16.90;11.93;;;;;;;;;;766164;179;820739;-56
2023/07/22 05:27:00;;;;;;;16.20;12.40;;;;;;;;;;776939;180;820932;-58
2023/07/22 05:29:26;;;;;;;14.73;11.97;;;;;;;;;;770948;180;915107;-57
2023/07/22 05:31:51;;;;;;;16.60;11.65;;;;;;;;;;765476;181;1018833;-58
2023/07/22 05:34:17;;;;;;;13.80;12.40;;;;;;;;;;773097;180;920114;-56
2023/07/22 05:36:43;;;;;;;13.50;12.00;;;;;;;;;;771656;180;815732;-58
2023/07/22 05:39:09;;;;;;;16.70;11.77;;;;;;;;;;770699;180;919325;-58
2023/07/22 05:41:35;;;;;;;13.17;11.47;;;;;;;;;;778982;179;918756;-56
2023/07/22 05:44:01;;;;;;;17.80;10.57;;;;;;;;;;781130;179;820052;-57
2023/07/22 05:46:26;;;;;;;11.40;9.63;;;;;;;;;;774897;179;919095;-57
2023/07/22 05:48:52;;;;;;;14.93;9.53;;;;;;;;;;769577;179;928964;-58
2023/07/22 05:51:18;;;;;;;11.90;9.50;;;;;;;;;;773282;179;817314;-57
2023/07/22 05:53:44;;;;;;;9.80;8.90;;;;;;;;;;772791;180;919666;-57
2023/07/22 05:56:10;;;;;;;13.18;9.30;;;;;;;;;;771753;180;919615;-58
2023/07/22 05:58:36;;;;;;;12.00;8.30;;;;;;;;;;778800;179;926782;-56
2023/07/22 06:01:01;;;;;;;13.70;9.10;;;;;;;;;;775958;179;818391;-58
2023/07/22 06:03:28;;;;;;;11.93;8.13;;;;;;;;;;775383;178;919159;-58
2023/07/22 06:05:54;;;;;;;10.80;8.33;;;;;;;;;;778647;178;914504;-58
2023/07/22 06:08:20;;;;;;;10.50;8.60;;;;;;;;;;772451;180;918568;-57
2023/07/22 06:10:45;;;;;;;15.77;8.60;;;;;;;;;;773261;180;909368;-57
2023/07/22 06:13:11;;;;;;;10.02;8.88;;;;;;;;;;768883;180;924086;-57
2023/07/22 06:15:37;;;;;;;12.73;8.97;;;;;;;;;;776709;180;942259;-57
2023/07/22 06:18:03;;;;;;;13.20;8.40;;;;;;;;;;775676;180;920675;-57
2023/07/22 06:20:29;;;;;;;8.80;7.97;;;;;;;;;;772476;181;919293;-58
2023/07/22 06:22:55;;;;;;;12.27;8.60;;;;;;;;;;777694;180;919576;-57
2023/07/22 06:25:21;;;;;;;10.77;8.17;;;;;;;;;;770833;180;921179;-57
2023/07/22 06:27:47;;;;;;;11.80;8.70;;;;;;;;;;773256;179;918190;-57
2023/07/22 06:30:12;;;;;;;11.25;8.90;;;;;;;;;;778142;178;919526;-57
2023/07/22 06:32:38;;;;;;;11.27;8.07;;;;;;;;;;770438;180;922400;-59
2023/07/22 06:35:04;;;;;;;9.70;8.70;;;;;;;;;;775163;180;865889;-58
2023/07/22 06:37:30;;;;;;;8.80;7.90;;;;;;;;;;773962;179;919569;-59
2023/07/22 06:39:56;;;;;;;10.67;8.53;;;;;;;;;;779560;180;917938;-58
2023/07/22 06:42:22;;;;;;;11.50;8.50;;;;;;;;;;775375;179;918655;-59
2023/07/22 06:44:48;;;;;;;9.33;7.40;;;;;;;;;;774244;179;919537;-59
2023/07/22 06:47:13;;;;;;;8.70;7.80;;;;;;;;;;776769;180;919340;-59
2023/07/22 06:49:40;;;;;;;8.80;6.90;;;;;;;;;;773889;181;919203;-59
2023/07/22 06:52:06;;;;;;;10.10;7.30;;;;;;;;;;775471;179;921227;-57
2023/07/22 06:54:31;;;;;;;9.67;7.30;;;;;;;;;;778342;178;918649;-57
2023/07/22 06:56:57;;;;;;;10.37;6.90;;;;;;;;;;775593;179;919367;-58
2023/07/22 06:59:23;;;;;;;11.90;6.77;;;;;;;;;;769009;179;919235;-58
2023/07/22 07:01:49;;;;;;;11.57;7.00;;;;;;;;;;771239;180;919444;-59
2023/07/22 07:04:15;;;;;;;7.77;6.93;;;;;;;;;;767996;180;919659;-57
2023/07/22 07:06:41;;;;;;;10.53;7.17;;;;;;;;;;765467;180;920757;-59
2023/07/22 07:09:06;;;;;;;9.40;7.50;;;;;;;;;;776460;180;917135;-59
2023/07/22 07:11:32;;;;;;;6.23;5.63;;;;;;;;;;775206;180;921882;-57
2023/07/22 07:13:58;;;;;;;7.17;6.20;;;;;;;;;;763274;180;919363;-59
2023/07/22 07:16:24;;;;;;;7.33;6.63;;;;;;;;;;771545;179;914197;-59
2023/07/22 07:18:50;;;;;;;7.43;5.80;;;;;;;;;;781469;178;918359;-59
2023/07/22 07:21:16;;;;;;;6.10;5.40;;;;;;;;;;772655;180;820176;-56
2023/07/22 07:23:42;;;;;;;6.57;5.60;;;;;;;;;;775527;179;919426;-59
2023/07/22 07:26:08;;;;;;;6.73;6.00;;;;;;;;;;776175;178;919169;-59
2023/07/22 07:28:34;;;;;;;8.10;7.30;;;;;;;;;;769190;181;917823;-57
2023/07/22 07:30:59;;;;;;;8.27;7.43;;;;;;;;;;775020;180;920816;-57
2023/07/22 07:33:25;;;;;;;8.33;7.10;;;;;;;;;;767460;181;918882;-56
2023/07/22 07:35:51;;;;;;;10.80;7.17;;;;;;;;;;776306;180;918891;-61
2023/07/22 07:38:17;;;;;;;10.13;8.67;;;;;;;;;;769111;181;1738269;-56
2023/07/22 07:40:43;;;;;;;8.27;7.10;;;;;;;;;;773365;180;919506;-57
2023/07/22 07:43:09;;;;;;;8.93;7.13;;;;;;;;;;776046;180;915716;-57
2023/07/22 07:45:34;;;;;;;9.23;8.20;;;;;;;;;;770837;180;923270;-57
2023/07/22 07:48:00;;;;;;;10.30;8.40;;;;;;;;;;772658;180;820612;-59
2023/07/22 07:50:26;;;;;;;10.10;9.10;;;;;;;;;;773160;180;917919;-59
2023/07/22 07:52:52;;;;;;;10.27;8.63;;;;;;;;;;774917;180;816795;-57
2023/07/22 07:55:18;;;;;;;9.83;8.83;;;;;;;;;;775594;180;877618;-59
2023/07/22 07:57:44;;;;;;;9.40;7.93;;;;;;;;;;772195;180;941073;-57
2023/07/22 08:00:10;;;;;;;8.60;7.67;;;;;;;;;;778656;179;819216;-55
2023/07/22 08:02:36;;;;;;;8.80;7.90;;;;;;;;;;767231;180;920805;-56
2023/07/22 08:05:02;;;;;;;8.87;7.97;;;;;;;;;;774913;180;919316;-56
2023/07/22 08:07:27;;;;;;;9.63;8.63;;;;;;;;;;777990;178;919108;-59
2023/07/22 08:09:53;;;;;;;10.13;8.17;;;;;;;;;;774887;178;918516;-56
2023/07/22 08:12:19;;;;;;;8.10;7.25;;;;;;;;;;774328;178;919425;-59
2023/07/22 08:14:45;;;;;;;8.93;8.10;;;;;;;;;;780140;178;919425;-57
2023/07/22 08:17:11;;;;;;;7.73;6.93;;;;;;;;;;773949;181;818361;-59
2023/07/22 08:19:37;;;;;;;9.98;6.30;;;;;;;;;;776057;180;913299;-56
2023/07/22 08:22:03;;;;;;;7.10;6.40;;;;;;;;;;774875;180;919430;-57
2023/07/22 08:24:28;;;;;;;9.73;5.93;;;;;;;;;;771756;180;919824;-59
2023/07/22 08:26:54;;;;;;;6.30;5.10;;;;;;;;;;769234;180;922903;-59
2023/07/22 08:29:20;;;;;;;9.50;6.60;;;;;;;;;;771437;180;921162;-63
2023/07/22 08:31:46;;;;;;;9.90;5.17;;;;;;;;;;778160;180;818707;-60
2023/07/22 08:34:12;;;;;;;8.30;5.87;;;;;;;;;;771447;180;919240;-56
2023/07/22 08:36:38;;;;;;;6.97;5.60;;;;;;;;;;771044;180;919912;-58
2023/07/22 08:39:03;;;;;;;7.70;5.90;;;;;;;;;;781010;180;919683;-59
2023/07/22 08:41:29;;;;;;;5.67;5.17;;;;;;;;;;775731;180;918623;-61
2023/07/22 08:43:55;;;;;;;9.90;6.37;;;;;;;;;;776547;180;901202;-57
2023/07/22 08:46:21;;;;;;;8.37;5.90;;;;;;;;;;780553;180;919130;-57
2023/07/22 08:48:48;;;;;;;5.90;5.30;;;;;;;;;;771211;180;916557;-62
2023/07/22 08:51:14;;;;;;;6.60;5.73;;;;;;;;;;767480;180;919940;-56
2023/07/22 08:53:39;;;;;;;6.17;5.07;;;;;;;;;;775187;180;918362;-57
2023/07/22 08:56:05;;;;;;;5.93;4.77;;;;;;;;;;776713;181;918148;-61
2023/07/22 08:58:31;;;;;;;6.57;5.00;;;;;;;;;;775270;180;920194;-59
2023/07/22 09:00:57;;;;;;;5.90;4.50;;;;;;;;;;773553;181;919883;-60
2023/07/22 09:03:23;;;;;;;4.93;4.43;;;;;;;;;;777525;180;817325;-60
2023/07/22 09:05:49;;;;;;;6.63;4.83;;;;;;;;;;769061;180;919538;-56
2023/07/22 09:08:14;;;;;;;7.10;5.03;;;;;;;;;;774448;180;917749;-60
2023/07/22 09:10:40;;;;;;;5.80;5.03;;;;;;;;;;778265;180;825705;-58
2023/07/22 09:13:06;;;;;;;7.00;5.50;;;;;;;;;;769369;181;920927;-59
2023/07/22 09:15:32;;;;;;;8.70;5.97;;;;;;;;;;771134;179;916802;-61
2023/07/22 09:17:58;;;;;;;9.83;6.30;;;;;;;;;;772718;179;919957;-60
2023/07/22 09:20:24;;;;;;;5.93;5.30;;;;;;;;;;767886;180;919940;-59
2023/07/22 09:22:49;;;;;;;6.40;4.80;;;;;;;;;;769497;179;919637;-57
2023/07/22 09:25:18;;;;;;;5.57;4.70;;;;;;;;;;774654;179;920073;-57
2023/07/22 09:27:43;;;;;;;5.68;5.03;;;;;;;;;;780725;180;920186;-57
2023/07/22 09:30:24;;;;;;;6.20;4.43;;;;;;;;;;772929;180;817143;-62
2023/07/22 09:32:50;;;;;;;5.37;4.03;;;;;;;;;;777422;180;921310;-62
2023/07/22 09:35:15;;;;;;;4.90;3.97;;;;;;;;;;775273;179;921403;-58
2023/07/22 09:37:41;;;;;;;5.70;3.80;;;;;;;;;;779128;180;819474;-58
2023/07/22 09:40:13;;;;;;;5.43;4.50;;;;;;;;;;774585;179;919660;-63
2023/07/22 09:42:39;;;;;;;5.37;4.80;;;;;;;;;;771297;180;922399;-58
2023/07/22 09:45:05;;;;;;;4.43;3.77;;;;;;;;;;770958;179;921598;-59
2023/07/22 09:47:31;;;;;;;5.80;3.90;;;;;;;;;;777866;179;819781;-62
2023/07/22 09:49:57;;;;;;;4.00;3.07;;;;;;;;;;774096;180;948288;-58
2023/07/22 09:52:24;;;;;;;5.53;2.80;;;;;;;;;;774709;180;895814;-61
2023/07/22 09:54:49;;;;;;;4.23;3.57;;;;;;;;;;778754;179;917963;-58
2023/07/22 09:57:14;;;;;;;4.37;3.23;;;;;;;;;;767076;180;917179;-62
2023/07/22 09:59:40;;;;;;;3.57;3.00;;;;;;;;;;775578;179;919057;-58
2023/07/22 10:02:06;;;;;;;5.10;3.77;;;;;;;;;;775709;180;853986;-62
2023/07/22 10:04:32;;;;;;;5.43;3.80;;;;;;;;;;765942;180;918377;-57
2023/07/22 10:06:58;;;;;;;4.40;3.00;;;;;;;;;;773406;179;919404;-57
2023/07/22 10:09:24;;;;;;;4.27;3.60;;;;;;;;;;768684;179;919567;-61
2023/07/22 10:11:49;;;;;;;4.80;3.10;;;;;;;;;;780660;179;919545;-63
2023/07/22 10:14:15;;;;;;;4.70;3.47;;;;;;;;;;774744;179;816466;-58
2023/07/22 10:16:41;;;;;;;4.80;3.53;;;;;;;;;;775682;179;820077;-63
2023/07/22 10:19:07;;;;;;;5.50;2.93;;;;;;;;;;776937;180;813905;-61
2023/07/22 10:21:33;;;;;;;4.60;3.37;;;;;;;;;;772010;180;916855;-58
2023/07/22 10:23:59;;;;;;;5.03;2.47;;;;;;;;;;769255;180;923463;-58
2023/07/22 10:26:24;;;;;;;4.20;3.30;;;;;;;;;;775405;180;916780;-62
2023/07/22 10:28:50;;;;;;;5.33;3.60;;;;;;;;;;778319;177;919642;-62
2023/07/22 10:31:18;;;;;;;5.40;3.73;;;;;;;;;;772500;179;920491;-58
2023/07/22 10:33:43;;;;;;;4.80;3.03;;;;;;;;;;776255;178;817277;-63
2023/07/22 10:36:09;;;;;;;4.83;2.83;;;;;;;;;;780727;179;918968;-58
2023/07/22 10:38:35;;;;;;;5.57;2.83;;;;;;;;;;775512;180;918701;-58
2023/07/22 10:41:00;;;;;;;6.60;2.70;;;;;;;;;;774699;180;863119;-58
2023/07/22 10:43:30;;;;;;;3.90;2.53;;;;;;;;;;779250;180;821659;-58
2023/07/22 10:45:56;;;;;;;4.50;3.37;;;;;;;;;;774384;179;919430;-63
2023/07/22 10:48:22;;;;;;;5.50;3.10;;;;;;;;;;775376;180;916620;-63
2023/07/22 10:50:48;;;;;;;4.53;3.47;;;;;;;;;;771522;180;921705;-63
2023/07/22 10:53:13;;;;;;;4.27;2.53;;;;;;;;;;770361;180;919067;-58
2023/07/22 10:55:45;;;;;;;4.60;2.83;;;;;;;;;;772013;180;919417;-58
2023/07/22 10:58:11;;;;;;;6.97;3.20;;;;;;;;;;772727;180;919650;-58
2023/07/22 11:00:37;;;;;;;6.53;2.40;;;;;;;;;;777242;180;919968;-58
2023/07/22 11:03:08;;;;;;;4.30;3.20;;;;;;;;;;769865;180;922730;-62
2023/07/22 11:05:40;;;;;;;5.40;3.20;;;;;;;;;;767444;180;919428;-58
2023/07/22 11:08:06;;;;;;;8.53;2.90;;;;;;;;;;777214;179;817344;-59
2023/07/22 11:10:32;;;;;;;4.23;2.97;;;;;;;;;;775317;180;917650;-58
2023/07/22 11:12:58;;;;;;;5.70;3.13;;;;;;;;;;767483;181;919758;-63
2023/07/22 11:15:24;;;;;;;5.13;2.73;;;;;;;;;;775193;179;918892;-58
2023/07/22 11:17:49;;;;;;;4.87;2.87;;;;;;;;;;775360;179;832287;-58
2023/07/22 11:20:15;;;;;;;4.43;2.70;;;;;;;;;;772235;179;869659;-58
2023/07/22 11:22:41;;;;;;;3.47;2.40;;;;;;;;;;773336;180;919385;-59
2023/07/22 11:25:07;;;;;;;3.97;2.40;;;;;;;;;;771949;180;943359;-63
2023/07/22 11:27:33;;;;;;;5.20;2.80;;;;;;;;;;776853;180;923977;-58
2023/07/22 11:29:59;;;;;;;3.80;2.47;;;;;;;;;;766332;179;919296;-64
2023/07/22 11:32:25;;;;;;;5.93;2.83;;;;;;;;;;773259;180;918538;-60
2023/07/22 11:34:52;;;;;;;4.57;2.77;;;;;;;;;;779132;179;917426;-63
2023/07/22 11:37:18;;;;;;;4.27;2.70;;;;;;;;;;771185;180;921516;-64
2023/07/22 11:39:44;;;;;;;6.60;3.40;;;;;;;;;;766785;178;921515;-64
2023/07/22 11:42:09;;;;;;;4.47;3.23;;;;;;;;;;776515;178;918481;-64
2023/07/22 11:44:35;;;;;;;3.77;2.50;;;;;;;;;;772733;179;918503;-58
2023/07/22 11:47:01;;;;;;;4.73;2.90;;;;;;;;;;771933;180;913516;-58
2023/07/22 11:49:28;;;;;;;3.23;1.90;;;;;;;;;;772768;180;923000;-64
2023/07/22 11:51:55;;;;;;;3.30;2.20;;;;;;;;;;772975;180;913930;-63
2023/07/22 11:54:21;;;;;;;3.50;2.37;;;;;;;;;;771604;180;909843;-58
2023/07/22 11:56:46;;;;;;;3.70;2.73;;;;;;;;;;765314;180;920052;-64
2023/07/22 11:59:12;;;;;;;6.53;3.23;;;;;;;;;;780066;179;915161;-58
2023/07/22 12:01:38;;;;;;;5.00;3.13;;;;;;;;;;773429;180;921435;-65
2023/07/22 12:04:04;;;;;;;4.00;2.80;;;;;;;;;;772128;180;909167;-58
2023/07/22 12:06:30;;;;;;;6.60;2.83;;;;;;;;;;772063;180;916411;-62
2023/07/22 12:08:56;;;;;;;4.30;2.60;;;;;;;;;;773119;180;924444;-58
2023/07/22 12:11:22;;;;;;;4.97;3.13;;;;;;;;;;772143;179;920483;-63
2023/07/22 12:13:50;;;;;;;5.30;2.80;;;;;;;;;;775833;180;914787;-63
2023/07/22 12:16:15;;;;;;;4.43;2.63;;;;;;;;;;768475;181;909844;-58
2023/07/22 12:18:41;;;;;;;4.80;2.83;;;;;;;;;;771698;180;921568;-63
2023/07/22 12:21:07;;;;;;;3.40;2.60;;;;;;;;;;770690;180;919330;-66
2023/07/22 12:23:33;;;;;;;4.67;3.00;;;;;;;;;;780228;180;918140;-62
2023/07/22 12:25:59;;;;;;;4.00;2.70;;;;;;;;;;776668;180;918445;-59
2023/07/22 12:28:25;;;;;;;5.47;3.20;;;;;;;;;;775329;179;919584;-58
2023/07/22 12:30:50;;;;;;;7.53;3.40;;;;;;;;;;778957;179;880760;-63
2023/07/22 12:33:16;;;;;;;3.80;2.57;;;;;;;;;;772946;180;919837;-63
2023/07/22 12:35:42;;;;;;;4.03;2.70;;;;;;;;;;773444;180;919742;-58
2023/07/22 12:38:08;;;;;;;4.40;3.03;;;;;;;;;;771214;180;918568;-63
2023/07/22 12:40:34;;;;;;;7.40;3.13;;;;;;;;;;771451;179;920434;-65
2023/07/22 12:43:00;;;;;;;6.83;3.00;;;;;;;;;;771787;179;919886;-64
2023/07/22 12:45:25;;;;;;;3.30;2.50;;;;;;;;;;772236;180;922049;-58
2023/07/22 12:47:51;;;;;;;6.73;3.13;;;;;;;;;;777919;180;820457;-63
2023/07/22 12:50:17;;;;;;;5.93;3.17;;;;;;;;;;774792;179;918913;-58
2023/07/22 12:52:43;;;;;;;5.03;2.77;;;;;;;;;;774089;179;921611;-62
2023/07/22 12:55:09;;;;;;;3.87;2.87;;;;;;;;;;778932;179;920397;-62
2023/07/22 12:57:35;;;;;;;4.70;2.47;;;;;;;;;;765899;180;923873;-63
2023/07/22 13:00:00;;;;;;;7.03;3.23;;;;;;;;;;764829;180;922417;-58
2023/07/22 13:02:26;;;;;;;6.17;3.00;;;;;;;;;;780256;179;817108;-62
2023/07/22 13:04:52;;;;;;;4.80;3.23;;;;;;;;;;773849;180;911886;-62
2023/07/22 13:07:18;;;;;;;5.63;2.90;;;;;;;;;;770093;180;937140;-62
2023/07/22 13:09:46;;;;;;;5.10;3.00;;;;;;;;;;769856;180;921912;-63
2023/07/22 13:12:10;;;;;;;5.77;3.10;;;;;;;;;;774019;179;919465;-58
2023/07/22 13:14:35;;;;;;;6.67;2.83;;;;;;;;;;775765;179;915930;-58
2023/07/22 13:17:01;;;;;;;4.50;3.23;;;;;;;;;;775284;180;831356;-64
2023/07/22 13:19:27;;;;;;;4.80;2.87;;;;;;;;;;778007;180;921068;-58
2023/07/22 13:21:53;;;;;;;3.90;2.63;;;;;;;;;;771105;180;919625;-57
2023/07/22 13:24:19;;;;;;;5.00;3.53;;;;;;;;;;766465;180;919435;-59
2023/07/22 13:26:45;;;;;;;4.53;3.33;;;;;;;;;;776895;179;935298;-57
2023/07/22 13:29:10;;;;;;;3.50;2.27;;;;;;;;;;772195;180;919559;-57
2023/07/22 13:31:36;;;;;;;4.50;2.90;;;;;;;;;;770347;180;926153;-61
2023/07/22 13:34:02;;;;;;;5.63;2.67;;;;;;;;;;771145;180;920725;-61
2023/07/22 13:36:28;;;;;;;6.37;2.80;;;;;;;;;;772512;180;920250;-61
2023/07/22 13:38:54;;;;;;;4.95;2.75;;;;;;;;;;772097;180;921299;-60
2023/07/22 13:41:20;;;;;;;12.30;3.23;;;;;;;;;;772518;180;919393;-58
2023/07/22 13:43:45;;;;;;;4.50;2.80;;;;;;;;;;773928;180;786226;-61
2023/07/22 13:46:11;;;;;;;5.30;3.00;;;;;;;;;;773201;180;919655;-58
2023/07/22 13:48:37;;;;;;;5.50;3.10;;;;;;;;;;772495;179;818791;-63
2023/07/22 13:51:03;;;;;;;6.40;2.90;;;;;;;;;;777994;180;914427;-62
2023/07/22 13:53:29;;;;;;;5.03;2.80;;;;;;;;;;775165;179;917407;-57
2023/07/22 13:55:55;;;;;;;4.45;2.67;;;;;;;;;;775416;179;950672;-65
2023/07/22 13:58:21;;;;;;;4.33;2.97;;;;;;;;;;772703;181;918508;-57
2023/07/22 14:00:47;;;;;;;3.50;2.67;;;;;;;;;;774405;180;919352;-57
2023/07/22 14:03:12;;;;;;;4.10;2.93;;;;;;;;;;774306;178;918963;-62
2023/07/22 14:05:38;;;;;;;5.90;2.90;;;;;;;;;;771132;179;919820;-60
2023/07/22 14:08:04;;;;;;;5.50;2.37;;;;;;;;;;777190;179;920247;-60
2023/07/22 14:10:30;;;;;;;6.20;2.87;;;;;;;;;;775679;179;919441;-62
2023/07/22 14:12:56;;;;;;;5.77;3.03;;;;;;;;;;775387;180;833994;-62